createdAt,value
2023-01-15T00:01:05.233Z,7
2023-01-15T00:16:06.030Z,6
2023-01-15T00:31:05.897Z,6
2023-01-15T00:46:05.077Z,6
2023-01-15T01:01:06.093Z,7
2023-01-15T01:16:05.199Z,6
2023-01-15T01:31:06.576Z,6
2023-01-15T01:46:06.396Z,7
2023-01-15T02:01:06.216Z,6
2023-01-15T02:16:05.469Z,5
2023-01-15T02:31:05.827Z,5
2023-01-15T02:46:05.764Z,4
2023-01-15T03:01:05.731Z,4
2023-01-15T03:16:05.344Z,4
2023-01-15T03:31:05.505Z,4
2023-01-15T03:46:06.489Z,5
2023-01-15T04:01:05.446Z,4
2023-01-15T04:16:05.811Z,4
2023-01-15T04:31:05.894Z,5
2023-01-15T04:46:06.066Z,5
2023-01-15T05:01:05.525Z,3
2023-01-15T05:16:05.451Z,5
2023-01-15T05:31:05.404Z,4
2023-01-15T05:46:06.484Z,5
2023-01-15T06:01:05.189Z,4
2023-01-15T06:16:05.425Z,5
2023-01-15T06:31:05.311Z,5
2023-01-15T06:46:05.756Z,4
2023-01-15T07:01:06.059Z,5
2023-01-15T07:16:05.992Z,8
2023-01-15T07:31:05.692Z,9
2023-01-15T07:46:05.764Z,8
2023-01-15T08:01:05.862Z,7
2023-01-15T08:16:05.969Z,14
2023-01-15T08:31:05.668Z,24
2023-01-15T08:46:05.654Z,31
2023-01-15T09:01:06.353Z,8
2023-01-15T09:16:06.107Z,15
2023-01-15T09:31:05.687Z,13
2023-01-15T09:46:06.107Z,11
2023-01-15T10:01:05.537Z,7
2023-01-15T10:16:05.659Z,6
2023-01-15T10:31:06.056Z,5
2023-01-15T10:46:05.320Z,5
2023-01-15T11:01:05.818Z,7
2023-01-15T11:16:05.283Z,5
2023-01-15T11:31:05.850Z,6
2023-01-15T11:46:05.411Z,6
2023-01-15T12:01:05.369Z,7
2023-01-15T12:16:05.663Z,6
2023-01-15T12:31:06.122Z,9
2023-01-15T12:46:05.509Z,7
2023-01-15T13:01:05.819Z,7
2023-01-15T13:16:05.484Z,9
2023-01-15T13:31:05.812Z,16
2023-01-15T13:46:05.330Z,16
2023-01-15T14:01:09.356Z,16
2023-01-15T14:16:05.947Z,10
2023-01-15T14:31:05.231Z,17
2023-01-15T14:46:05.704Z,18
2023-01-15T15:01:05.639Z,15
2023-01-15T15:16:06.051Z,23
2023-01-15T15:31:06.208Z,28
2023-01-15T15:46:06.007Z,30
2023-01-15T16:01:05.667Z,22
2023-01-15T16:16:05.540Z,55
2023-01-15T16:31:05.671Z,68
2023-01-15T16:46:05.615Z,57
2023-01-15T17:01:05.579Z,28
2023-01-15T17:16:05.874Z,19
2023-01-15T17:31:05.589Z,18
2023-01-15T17:46:05.439Z,14
2023-01-15T18:01:05.709Z,26
2023-01-15T18:16:05.287Z,62
2023-01-15T18:31:05.475Z,24
2023-01-15T18:46:05.939Z,33
2023-01-15T19:01:05.287Z,28
2023-01-15T19:16:05.664Z,31
2023-01-15T19:31:05.464Z,33
2023-01-15T19:46:04.600Z,27
2023-01-15T20:01:05.047Z,27
2023-01-15T20:16:05.447Z,29
2023-01-15T20:31:05.738Z,32
2023-01-15T20:46:05.926Z,29
2023-01-15T21:01:05.368Z,31
2023-01-15T21:16:05.742Z,29
2023-01-15T21:31:05.781Z,28
2023-01-15T21:46:05.419Z,30
2023-01-15T22:01:05.918Z,26
2023-01-15T22:16:05.215Z,31
2023-01-15T22:31:06.085Z,24
2023-01-15T22:46:05.025Z,38
2023-01-15T23:01:05.486Z,30
2023-01-15T23:16:05.164Z,29
2023-01-15T23:31:05.997Z,36
2023-01-15T23:46:05.762Z,43
